sensor_id;sensor_type;location;lat;lon;timestamp;P1;durP1;ratioP1;P2;durP2;ratioP2
22289;SDS011;11313;50.116;8.424;2023-04-15T00:01:57;2.47;;;1.30;;
22289;SDS011;11313;50.116;8.424;2023-04-15T00:04:23;2.25;;;1.30;;
22289;SDS011;11313;50.116;8.424;2023-04-15T00:06:50;1.95;;;1.25;;
22289;SDS011;11313;50.116;8.424;2023-04-15T00:09:19;1.75;;;1.13;;
22289;SDS011;11313;50.116;8.424;2023-04-15T00:11:44;1.85;;;1.33;;
22289;SDS011;11313;50.116;8.424;2023-04-15T00:14:13;1.85;;;1.23;;
22289;SDS011;11313;50.116;8.424;2023-04-15T00:16:39;2.30;;;1.35;;
22289;SDS011;11313;50.116;8.424;2023-04-15T00:19:05;2.45;;;1.05;;
22289;SDS011;11313;50.116;8.424;2023-04-15T00:21:30;1.95;;;1.35;;
22289;SDS011;11313;50.116;8.424;2023-04-15T00:23:56;2.15;;;1.15;;
22289;SDS011;11313;50.116;8.424;2023-04-15T00:26:22;1.45;;;1.00;;
22289;SDS011;11313;50.116;8.424;2023-04-15T00:28:47;1.95;;;1.20;;
22289;SDS011;11313;50.116;8.424;2023-04-15T00:31:14;2.30;;;1.38;;
22289;SDS011;11313;50.116;8.424;2023-04-15T00:33:40;4.05;;;1.20;;
22289;SDS011;11313;50.116;8.424;2023-04-15T00:36:06;2.42;;;1.27;;
22289;SDS011;11313;50.116;8.424;2023-04-15T00:38:32;1.80;;;1.20;;
22289;SDS011;11313;50.116;8.424;2023-04-15T00:40:58;2.00;;;1.27;;
22289;SDS011;11313;50.116;8.424;2023-04-15T00:43:23;2.63;;;1.38;;
22289;SDS011;11313;50.116;8.424;2023-04-15T00:45:50;2.10;;;1.30;;
22289;SDS011;11313;50.116;8.424;2023-04-15T00:48:17;1.55;;;1.08;;
22289;SDS011;11313;50.116;8.424;2023-04-15T00:50:44;2.05;;;1.30;;
22289;SDS011;11313;50.116;8.424;2023-04-15T00:53:09;2.08;;;1.17;;
22289;SDS011;11313;50.116;8.424;2023-04-15T00:55:35;2.92;;;1.60;;
22289;SDS011;11313;50.116;8.424;2023-04-15T00:58:01;2.47;;;1.40;;
22289;SDS011;11313;50.116;8.424;2023-04-15T01:00:27;2.28;;;1.50;;
22289;SDS011;11313;50.116;8.424;2023-04-15T01:02:54;1.73;;;1.45;;
22289;SDS011;11313;50.116;8.424;2023-04-15T01:05:19;2.08;;;1.30;;
22289;SDS011;11313;50.116;8.424;2023-04-15T01:07:45;1.80;;;1.17;;
22289;SDS011;11313;50.116;8.424;2023-04-15T01:10:12;2.70;;;1.50;;
22289;SDS011;11313;50.116;8.424;2023-04-15T01:12:37;1.70;;;1.30;;
22289;SDS011;11313;50.116;8.424;2023-04-15T01:15:03;1.92;;;1.30;;
22289;SDS011;11313;50.116;8.424;2023-04-15T01:17:29;1.52;;;1.17;;
22289;SDS011;11313;50.116;8.424;2023-04-15T01:19:55;1.85;;;1.42;;
22289;SDS011;11313;50.116;8.424;2023-04-15T01:22:24;2.28;;;1.40;;
22289;SDS011;11313;50.116;8.424;2023-04-15T01:24:55;1.48;;;1.30;;
22289;SDS011;11313;50.116;8.424;2023-04-15T01:27:26;2.20;;;1.50;;
22289;SDS011;11313;50.116;8.424;2023-04-15T01:29:51;2.50;;;1.30;;
22289;SDS011;11313;50.116;8.424;2023-04-15T01:32:17;1.55;;;1.30;;
22289;SDS011;11313;50.116;8.424;2023-04-15T01:34:43;1.60;;;1.30;;
22289;SDS011;11313;50.116;8.424;2023-04-15T01:37:09;1.60;;;1.33;;
22289;SDS011;11313;50.116;8.424;2023-04-15T01:39:35;1.50;;;1.40;;
22289;SDS011;11313;50.116;8.424;2023-04-15T01:42:01;1.77;;;1.35;;
22289;SDS011;11313;50.116;8.424;2023-04-15T01:44:27;3.58;;;1.38;;
22289;SDS011;11313;50.116;8.424;2023-04-15T01:46:52;1.88;;;1.50;;
22289;SDS011;11313;50.116;8.424;2023-04-15T01:49:18;1.60;;;1.17;;
22289;SDS011;11313;50.116;8.424;2023-04-15T01:51:43;2.10;;;1.30;;
22289;SDS011;11313;50.116;8.424;2023-04-15T01:54:09;2.15;;;1.45;;
22289;SDS011;11313;50.116;8.424;2023-04-15T01:56:35;1.30;;;1.20;;
22289;SDS011;11313;50.116;8.424;2023-04-15T01:59:00;2.45;;;2.00;;
22289;SDS011;11313;50.116;8.424;2023-04-15T02:01:27;1.58;;;1.23;;
22289;SDS011;11313;50.116;8.424;2023-04-15T02:03:53;3.97;;;3.67;;
22289;SDS011;11313;50.116;8.424;2023-04-15T02:06:18;4.13;;;3.83;;
22289;SDS011;11313;50.116;8.424;2023-04-15T02:08:44;8.98;;;8.45;;
22289;SDS011;11313;50.116;8.424;2023-04-15T02:11:09;4.18;;;3.88;;
22289;SDS011;11313;50.116;8.424;2023-04-15T02:13:35;23.15;;;21.90;;
22289;SDS011;11313;50.116;8.424;2023-04-15T02:16:01;13.15;;;12.30;;
22289;SDS011;11313;50.116;8.424;2023-04-15T02:18:27;12.55;;;11.82;;
22289;SDS011;11313;50.116;8.424;2023-04-15T02:20:52;5.55;;;5.25;;
22289;SDS011;11313;50.116;8.424;2023-04-15T02:23:18;35.65;;;33.60;;
22289;SDS011;11313;50.116;8.424;2023-04-15T02:25:44;10.75;;;10.10;;
22289;SDS011;11313;50.116;8.424;2023-04-15T02:28:09;8.63;;;8.13;;
22289;SDS011;11313;50.116;8.424;2023-04-15T02:30:35;4.32;;;4.03;;
22289;SDS011;11313;50.116;8.424;2023-04-15T02:33:00;3.83;;;3.60;;
22289;SDS011;11313;50.116;8.424;2023-04-15T02:35:27;15.88;;;14.98;;
22289;SDS011;11313;50.116;8.424;2023-04-15T02:37:52;27.33;;;25.83;;
22289;SDS011;11313;50.116;8.424;2023-04-15T02:40:18;6.72;;;6.25;;
22289;SDS011;11313;50.116;8.424;2023-04-15T02:42:43;36.85;;;34.78;;
22289;SDS011;11313;50.116;8.424;2023-04-15T02:45:09;10.75;;;10.00;;
22289;SDS011;11313;50.116;8.424;2023-04-15T02:47:38;13.80;;;13.00;;
22289;SDS011;11313;50.116;8.424;2023-04-15T02:50:09;9.77;;;9.15;;
22289;SDS011;11313;50.116;8.424;2023-04-15T02:52:37;4.95;;;4.65;;
22289;SDS011;11313;50.116;8.424;2023-04-15T02:55:06;3.22;;;2.92;;
22289;SDS011;11313;50.116;8.424;2023-04-15T02:57:33;5.28;;;4.88;;
22289;SDS011;11313;50.116;8.424;2023-04-15T03:00:01;9.70;;;9.05;;
22289;SDS011;11313;50.116;8.424;2023-04-15T03:02:33;3.00;;;2.80;;
22289;SDS011;11313;50.116;8.424;2023-04-15T03:04:59;7.40;;;6.93;;
22289;SDS011;11313;50.116;8.424;2023-04-15T03:07:25;6.80;;;6.40;;
22289;SDS011;11313;50.116;8.424;2023-04-15T03:09:51;5.43;;;5.13;;
22289;SDS011;11313;50.116;8.424;2023-04-15T03:12:16;4.47;;;4.18;;
22289;SDS011;11313;50.116;8.424;2023-04-15T03:14:42;64.30;;;60.67;;
22289;SDS011;11313;50.116;8.424;2023-04-15T03:17:07;6.15;;;5.75;;
22289;SDS011;11313;50.116;8.424;2023-04-15T03:19:33;2.92;;;2.65;;
22289;SDS011;11313;50.116;8.424;2023-04-15T03:21:58;4.82;;;4.45;;
22289;SDS011;11313;50.116;8.424;2023-04-15T03:24:24;9.48;;;8.95;;
22289;SDS011;11313;50.116;8.424;2023-04-15T03:26:50;6.03;;;5.53;;
22289;SDS011;11313;50.116;8.424;2023-04-15T03:29:15;4.25;;;4.00;;
22289;SDS011;11313;50.116;8.424;2023-04-15T03:31:41;6.70;;;6.20;;
22289;SDS011;11313;50.116;8.424;2023-04-15T03:34:06;7.75;;;7.35;;
22289;SDS011;11313;50.116;8.424;2023-04-15T03:36:32;31.90;;;30.15;;
22289;SDS011;11313;50.116;8.424;2023-04-15T03:38:57;8.05;;;7.55;;
22289;SDS011;11313;50.116;8.424;2023-04-15T03:41:23;3.90;;;3.60;;
22289;SDS011;11313;50.116;8.424;2023-04-15T03:43:49;6.00;;;5.53;;
22289;SDS011;11313;50.116;8.424;2023-04-15T03:46:16;3.28;;;3.08;;
22289;SDS011;11313;50.116;8.424;2023-04-15T03:48:42;8.55;;;8.02;;
22289;SDS011;11313;50.116;8.424;2023-04-15T03:51:07;7.50;;;7.00;;
22289;SDS011;11313;50.116;8.424;2023-04-15T03:53:33;12.82;;;12.10;;
22289;SDS011;11313;50.116;8.424;2023-04-15T03:55:58;14.68;;;13.85;;
22289;SDS011;11313;50.116;8.424;2023-04-15T03:58:24;7.35;;;6.90;;
22289;SDS011;11313;50.116;8.424;2023-04-15T04:00:49;12.48;;;11.77;;
22289;SDS011;11313;50.116;8.424;2023-04-15T04:03:15;16.95;;;15.98;;
22289;SDS011;11313;50.116;8.424;2023-04-15T04:05:41;8.95;;;8.40;;
22289;SDS011;11313;50.116;8.424;2023-04-15T04:08:08;17.08;;;16.15;;
22289;SDS011;11313;50.116;8.424;2023-04-15T04:10:33;8.23;;;7.72;;
22289;SDS011;11313;50.116;8.424;2023-04-15T04:12:59;5.55;;;5.18;;
22289;SDS011;11313;50.116;8.424;2023-04-15T04:15:28;13.13;;;12.38;;
22289;SDS011;11313;50.116;8.424;2023-04-15T04:17:53;3.63;;;3.42;;
22289;SDS011;11313;50.116;8.424;2023-04-15T04:20:19;2.15;;;1.83;;
22289;SDS011;11313;50.116;8.424;2023-04-15T04:22:45;8.15;;;7.68;;
22289;SDS011;11313;50.116;8.424;2023-04-15T04:25:10;23.90;;;22.58;;
22289;SDS011;11313;50.116;8.424;2023-04-15T04:27:36;14.15;;;13.35;;
22289;SDS011;11313;50.116;8.424;2023-04-15T04:30:02;27.85;;;26.33;;
22289;SDS011;11313;50.116;8.424;2023-04-15T04:32:27;40.38;;;38.13;;
22289;SDS011;11313;50.116;8.424;2023-04-15T04:34:53;10.15;;;9.55;;
22289;SDS011;11313;50.116;8.424;2023-04-15T04:37:18;8.00;;;7.57;;
22289;SDS011;11313;50.116;8.424;2023-04-15T04:39:44;4.40;;;4.10;;
22289;SDS011;11313;50.116;8.424;2023-04-15T04:42:10;8.18;;;7.68;;
22289;SDS011;11313;50.116;8.424;2023-04-15T04:44:35;19.85;;;18.75;;
22289;SDS011;11313;50.116;8.424;2023-04-15T04:47:01;11.88;;;11.20;;
22289;SDS011;11313;50.116;8.424;2023-04-15T04:49:26;8.75;;;8.23;;
22289;SDS011;11313;50.116;8.424;2023-04-15T04:51:52;3.67;;;3.47;;
22289;SDS011;11313;50.116;8.424;2023-04-15T04:54:17;4.30;;;3.95;;
22289;SDS011;11313;50.116;8.424;2023-04-15T04:56:43;13.57;;;12.75;;
22289;SDS011;11313;50.116;8.424;2023-04-15T04:59:08;2.65;;;1.80;;
22289;SDS011;11313;50.116;8.424;2023-04-15T05:01:34;2.45;;;2.28;;
22289;SDS011;11313;50.116;8.424;2023-04-15T05:03:59;7.40;;;6.95;;
22289;SDS011;11313;50.116;8.424;2023-04-15T05:06:25;21.45;;;20.23;;
22289;SDS011;11313;50.116;8.424;2023-04-15T05:08:51;6.80;;;6.40;;
22289;SDS011;11313;50.116;8.424;2023-04-15T05:11:17;5.13;;;4.72;;
22289;SDS011;11313;50.116;8.424;2023-04-15T05:13:42;11.27;;;10.63;;
22289;SDS011;11313;50.116;8.424;2023-04-15T05:16:08;4.28;;;3.92;;
22289;SDS011;11313;50.116;8.424;2023-04-15T05:18:33;8.57;;;8.05;;
22289;SDS011;11313;50.116;8.424;2023-04-15T05:20:59;2.95;;;2.38;;
22289;SDS011;11313;50.116;8.424;2023-04-15T05:23:24;22.15;;;20.90;;
22289;SDS011;11313;50.116;8.424;2023-04-15T05:25:50;6.68;;;6.28;;
22289;SDS011;11313;50.116;8.424;2023-04-15T05:28:16;2.90;;;2.70;;
22289;SDS011;11313;50.116;8.424;2023-04-15T05:30:41;8.20;;;7.70;;
22289;SDS011;11313;50.116;8.424;2023-04-15T05:33:07;3.20;;;2.97;;
22289;SDS011;11313;50.116;8.424;2023-04-15T05:35:33;2.33;;;2.05;;
22289;SDS011;11313;50.116;8.424;2023-04-15T05:37:58;7.25;;;6.72;;
22289;SDS011;11313;50.116;8.424;2023-04-15T05:40:24;5.22;;;4.07;;
22289;SDS011;11313;50.116;8.424;2023-04-15T05:42:50;5.97;;;2.42;;
22289;SDS011;11313;50.116;8.424;2023-04-15T05:45:15;5.72;;;3.58;;
22289;SDS011;11313;50.116;8.424;2023-04-15T05:47:41;9.57;;;3.60;;
22289;SDS011;11313;50.116;8.424;2023-04-15T05:50:07;4.70;;;2.83;;
22289;SDS011;11313;50.116;8.424;2023-04-15T05:52:32;10.15;;;2.50;;
22289;SDS011;11313;50.116;8.424;2023-04-15T05:54:58;15.00;;;13.55;;
22289;SDS011;11313;50.116;8.424;2023-04-15T05:57:23;10.27;;;9.38;;
22289;SDS011;11313;50.116;8.424;2023-04-15T05:59:49;10.73;;;8.15;;
22289;SDS011;11313;50.116;8.424;2023-04-15T06:02:16;11.57;;;7.47;;
22289;SDS011;11313;50.116;8.424;2023-04-15T06:04:42;9.25;;;6.13;;
22289;SDS011;11313;50.116;8.424;2023-04-15T06:07:08;11.02;;;9.32;;
22289;SDS011;11313;50.116;8.424;2023-04-15T06:09:33;19.70;;;18.05;;
22289;SDS011;11313;50.116;8.424;2023-04-15T06:11:59;17.23;;;15.80;;
22289;SDS011;11313;50.116;8.424;2023-04-15T06:14:25;10.38;;;7.43;;
22289;SDS011;11313;50.116;8.424;2023-04-15T06:16:51;10.75;;;6.80;;
22289;SDS011;11313;50.116;8.424;2023-04-15T06:19:16;71.40;;;67.10;;
22289;SDS011;11313;50.116;8.424;2023-04-15T06:21:43;97.82;;;91.78;;
22289;SDS011;11313;50.116;8.424;2023-04-15T06:24:09;99.20;;;93.30;;
22289;SDS011;11313;50.116;8.424;2023-04-15T06:26:35;87.80;;;82.63;;
22289;SDS011;11313;50.116;8.424;2023-04-15T06:29:00;82.85;;;77.95;;
22289;SDS011;11313;50.116;8.424;2023-04-15T06:31:26;63.38;;;59.53;;
22289;SDS011;11313;50.116;8.424;2023-04-15T06:33:51;180.50;;;169.98;;
22289;SDS011;11313;50.116;8.424;2023-04-15T06:36:17;175.27;;;165.05;;
22289;SDS011;11313;50.116;8.424;2023-04-15T06:38:42;128.75;;;121.15;;
22289;SDS011;11313;50.116;8.424;2023-04-15T06:41:08;138.55;;;130.55;;
22289;SDS011;11313;50.116;8.424;2023-04-15T06:43:33;120.05;;;113.03;;
22289;SDS011;11313;50.116;8.424;2023-04-15T06:45:59;114.75;;;108.10;;
22289;SDS011;11313;50.116;8.424;2023-04-15T06:48:25;121.28;;;114.32;;
22289;SDS011;11313;50.116;8.424;2023-04-15T06:50:51;133.65;;;125.82;;
22289;SDS011;11313;50.116;8.424;2023-04-15T06:53:16;122.07;;;115.07;;
22289;SDS011;11313;50.116;8.424;2023-04-15T06:55:42;138.90;;;130.90;;
22289;SDS011;11313;50.116;8.424;2023-04-15T06:58:08;149.95;;;141.38;;
22289;SDS011;11313;50.116;8.424;2023-04-15T07:00:33;95.72;;;90.30;;
22289;SDS011;11313;50.116;8.424;2023-04-15T07:02:59;140.00;;;131.85;;
22289;SDS011;11313;50.116;8.424;2023-04-15T07:05:27;140.52;;;132.48;;
22289;SDS011;11313;50.116;8.424;2023-04-15T07:07:53;147.95;;;139.55;;
22289;SDS011;11313;50.116;8.424;2023-04-15T07:10:19;132.45;;;124.80;;
22289;SDS011;11313;50.116;8.424;2023-04-15T07:12:45;122.90;;;115.95;;
22289;SDS011;11313;50.116;8.424;2023-04-15T07:15:11;49.63;;;46.58;;
22289;SDS011;11313;50.116;8.424;2023-04-15T07:17:37;84.18;;;79.40;;
22289;SDS011;11313;50.116;8.424;2023-04-15T07:20:03;116.35;;;109.75;;
22289;SDS011;11313;50.116;8.424;2023-04-15T07:22:29;145.73;;;137.35;;
22289;SDS011;11313;50.116;8.424;2023-04-15T07:24:54;123.70;;;116.65;;
22289;SDS011;11313;50.116;8.424;2023-04-15T07:27:20;75.45;;;71.07;;
22289;SDS011;11313;50.116;8.424;2023-04-15T07:29:46;47.00;;;44.33;;
22289;SDS011;11313;50.116;8.424;2023-04-15T07:32:12;83.15;;;78.43;;
22289;SDS011;11313;50.116;8.424;2023-04-15T07:34:37;90.50;;;85.43;;
22289;SDS011;11313;50.116;8.424;2023-04-15T07:37:03;85.55;;;80.70;;
22289;SDS011;11313;50.116;8.424;2023-04-15T07:39:28;110.75;;;104.38;;
22289;SDS011;11313;50.116;8.424;2023-04-15T07:41:55;120.10;;;113.32;;
22289;SDS011;11313;50.116;8.424;2023-04-15T07:44:20;151.40;;;142.77;;
22289;SDS011;11313;50.116;8.424;2023-04-15T07:46:46;156.98;;;148.10;;
22289;SDS011;11313;50.116;8.424;2023-04-15T07:49:12;110.50;;;104.28;;
22289;SDS011;11313;50.116;8.424;2023-04-15T07:51:37;89.72;;;84.78;;
22289;SDS011;11313;50.116;8.424;2023-04-15T07:54:02;84.68;;;79.93;;
22289;SDS011;11313;50.116;8.424;2023-04-15T07:56:28;73.15;;;69.13;;
22289;SDS011;11313;50.116;8.424;2023-04-15T07:58:54;89.57;;;84.45;;
22289;SDS011;11313;50.116;8.424;2023-04-15T08:01:19;66.00;;;62.30;;
22289;SDS011;11313;50.116;8.424;2023-04-15T08:03:45;55.38;;;52.28;;
22289;SDS011;11313;50.116;8.424;2023-04-15T08:06:11;44.75;;;42.17;;
22289;SDS011;11313;50.116;8.424;2023-04-15T08:08:36;4.50;;;4.10;;
22289;SDS011;11313;50.116;8.424;2023-04-15T08:11:01;20.17;;;18.75;;
22289;SDS011;11313;50.116;8.424;2023-04-15T08:13:27;8.43;;;7.82;;
22289;SDS011;11313;50.116;8.424;2023-04-15T08:16:12;8.10;;;7.47;;
22289;SDS011;11313;50.116;8.424;2023-04-15T08:18:40;18.45;;;17.25;;
22289;SDS011;11313;50.116;8.424;2023-04-15T08:21:06;30.27;;;28.48;;
22289;SDS011;11313;50.116;8.424;2023-04-15T08:23:32;9.27;;;8.48;;
22289;SDS011;11313;50.116;8.424;2023-04-15T08:25:58;10.02;;;9.32;;
22289;SDS011;11313;50.116;8.424;2023-04-15T08:28:24;25.80;;;24.17;;
22289;SDS011;11313;50.116;8.424;2023-04-15T08:30:49;16.83;;;15.77;;
22289;SDS011;11313;50.116;8.424;2023-04-15T08:33:16;21.20;;;19.80;;
22289;SDS011;11313;50.116;8.424;2023-04-15T08:35:42;24.52;;;22.52;;
22289;SDS011;11313;50.116;8.424;2023-04-15T08:38:08;63.47;;;59.70;;
22289;SDS011;11313;50.116;8.424;2023-04-15T08:40:40;18.20;;;16.75;;
22289;SDS011;11313;50.116;8.424;2023-04-15T08:43:08;62.63;;;58.97;;
22289;SDS011;11313;50.116;8.424;2023-04-15T08:45:35;14.15;;;13.20;;
22289;SDS011;11313;50.116;8.424;2023-04-15T08:48:03;34.88;;;32.83;;
22289;SDS011;11313;50.116;8.424;2023-04-15T08:50:30;42.55;;;39.75;;
22289;SDS011;11313;50.116;8.424;2023-04-15T08:52:58;13.65;;;12.63;;
22289;SDS011;11313;50.116;8.424;2023-04-15T08:55:25;22.52;;;21.13;;
22289;SDS011;11313;50.116;8.424;2023-04-15T08:57:54;45.55;;;42.88;;
22289;SDS011;11313;50.116;8.424;2023-04-15T09:00:20;8.73;;;8.02;;
22289;SDS011;11313;50.116;8.424;2023-04-15T09:02:47;8.90;;;8.15;;
22289;SDS011;11313;50.116;8.424;2023-04-15T09:05:12;33.75;;;31.75;;
22289;SDS011;11313;50.116;8.424;2023-04-15T09:07:38;19.40;;;18.17;;
22289;SDS011;11313;50.116;8.424;2023-04-15T09:10:04;53.30;;;50.25;;
22289;SDS011;11313;50.116;8.424;2023-04-15T09:12:32;49.65;;;46.70;;
22289;SDS011;11313;50.116;8.424;2023-04-15T09:14:59;40.88;;;38.42;;
22289;SDS011;11313;50.116;8.424;2023-04-15T09:17:25;123.05;;;115.90;;
22289;SDS011;11313;50.116;8.424;2023-04-15T09:20:06;27.05;;;25.48;;
22289;SDS011;11313;50.116;8.424;2023-04-15T09:22:37;72.53;;;68.32;;
22289;SDS011;11313;50.116;8.424;2023-04-15T09:25:05;43.58;;;41.08;;
22289;SDS011;11313;50.116;8.424;2023-04-15T09:27:51;82.18;;;77.63;;
22289;SDS011;11313;50.116;8.424;2023-04-15T09:30:21;91.32;;;85.75;;
22289;SDS011;11313;50.116;8.424;2023-04-15T09:35:17;83.00;;;78.13;;
22289;SDS011;11313;50.116;8.424;2023-04-15T09:37:44;136.68;;;128.77;;
22289;SDS011;11313;50.116;8.424;2023-04-15T09:40:10;46.67;;;43.92;;
22289;SDS011;11313;50.116;8.424;2023-04-15T09:42:39;65.10;;;61.40;;
22289;SDS011;11313;50.116;8.424;2023-04-15T09:45:19;122.15;;;115.25;;
22289;SDS011;11313;50.116;8.424;2023-04-15T09:47:45;185.73;;;175.07;;
22289;SDS011;11313;50.116;8.424;2023-04-15T09:50:10;82.93;;;78.18;;
22289;SDS011;11313;50.116;8.424;2023-04-15T09:52:40;92.95;;;87.60;;
22289;SDS011;11313;50.116;8.424;2023-04-15T09:55:10;106.70;;;100.78;;
22289;SDS011;11313;50.116;8.424;2023-04-15T09:57:37;71.20;;;67.18;;
22289;SDS011;11313;50.116;8.424;2023-04-15T10:00:05;75.22;;;70.90;;
22289;SDS011;11313;50.116;8.424;2023-04-15T10:02:33;126.28;;;119.18;;
22289;SDS011;11313;50.116;8.424;2023-04-15T10:05:00;80.25;;;75.60;;
22289;SDS011;11313;50.116;8.424;2023-04-15T10:07:26;35.53;;;33.53;;
22289;SDS011;11313;50.116;8.424;2023-04-15T10:09:52;242.40;;;228.57;;
22289;SDS011;11313;50.116;8.424;2023-04-15T10:12:19;145.48;;;137.10;;
22289;SDS011;11313;50.116;8.424;2023-04-15T10:14:52;69.28;;;65.43;;
22289;SDS011;11313;50.116;8.424;2023-04-15T10:17:22;83.53;;;78.68;;
22289;SDS011;11313;50.116;8.424;2023-04-15T10:19:50;70.70;;;66.85;;
22289;SDS011;11313;50.116;8.424;2023-04-15T10:22:18;44.75;;;42.10;;
22289;SDS011;11313;50.116;8.424;2023-04-15T10:24:44;102.43;;;96.72;;
22289;SDS011;11313;50.116;8.424;2023-04-15T10:27:12;127.97;;;120.68;;
22289;SDS011;11313;50.116;8.424;2023-04-15T10:29:38;73.78;;;69.72;;
22289;SDS011;11313;50.116;8.424;2023-04-15T10:32:04;43.50;;;41.03;;
22289;SDS011;11313;50.116;8.424;2023-04-15T10:34:30;101.43;;;95.63;;
22289;SDS011;11313;50.116;8.424;2023-04-15T10:37:02;112.32;;;106.07;;
22289;SDS011;11313;50.116;8.424;2023-04-15T10:42:14;47.17;;;44.50;;
22289;SDS011;11313;50.116;8.424;2023-04-15T10:44:41;31.52;;;29.77;;
22289;SDS011;11313;50.116;8.424;2023-04-15T10:47:09;63.90;;;60.17;;
22289;SDS011;11313;50.116;8.424;2023-04-15T10:49:41;77.47;;;73.03;;
22289;SDS011;11313;50.116;8.424;2023-04-15T10:52:16;65.07;;;61.47;;
22289;SDS011;11313;50.116;8.424;2023-04-15T10:54:45;73.70;;;69.55;;
22289;SDS011;11313;50.116;8.424;2023-04-15T10:57:21;78.22;;;73.82;;
22289;SDS011;11313;50.116;8.424;2023-04-15T11:08:06;224.38;;;211.73;;
22289;SDS011;11313;50.116;8.424;2023-04-15T11:13:02;114.38;;;108.03;;
22289;SDS011;11313;50.116;8.424;2023-04-15T11:15:38;102.88;;;97.00;;
22289;SDS011;11313;50.116;8.424;2023-04-15T11:20:37;138.65;;;130.85;;
22289;SDS011;11313;50.116;8.424;2023-04-15T11:23:04;134.02;;;126.35;;
22289;SDS011;11313;50.116;8.424;2023-04-15T11:25:31;173.82;;;163.95;;
22289;SDS011;11313;50.116;8.424;2023-04-15T11:27:59;150.73;;;142.25;;
22289;SDS011;11313;50.116;8.424;2023-04-15T11:30:26;75.55;;;71.38;;
22289;SDS011;11313;50.116;8.424;2023-04-15T11:32:55;99.22;;;93.60;;
22289;SDS011;11313;50.116;8.424;2023-04-15T11:37:49;70.55;;;66.68;;
22289;SDS011;11313;50.116;8.424;2023-04-15T11:40:16;100.10;;;94.55;;
22289;SDS011;11313;50.116;8.424;2023-04-15T11:42:46;153.85;;;145.10;;
22289;SDS011;11313;50.116;8.424;2023-04-15T11:45:28;150.80;;;142.27;;
22289;SDS011;11313;50.116;8.424;2023-04-15T11:47:54;211.20;;;199.25;;
22289;SDS011;11313;50.116;8.424;2023-04-15T13:47:05;37.33;;;35.33;;
22289;SDS011;11313;50.116;8.424;2023-04-15T13:49:31;22.10;;;20.90;;
22289;SDS011;11313;50.116;8.424;2023-04-15T13:51:56;36.88;;;34.97;;
22289;SDS011;11313;50.116;8.424;2023-04-15T13:54:22;38.90;;;36.55;;
22289;SDS011;11313;50.116;8.424;2023-04-15T13:56:47;33.80;;;31.98;;
22289;SDS011;11313;50.116;8.424;2023-04-15T13:59:13;17.33;;;16.38;;
22289;SDS011;11313;50.116;8.424;2023-04-15T14:01:38;13.20;;;12.40;;
22289;SDS011;11313;50.116;8.424;2023-04-15T14:04:05;5.97;;;5.43;;
22289;SDS011;11313;50.116;8.424;2023-04-15T14:06:30;29.45;;;27.75;;
22289;SDS011;11313;50.116;8.424;2023-04-15T14:08:56;18.33;;;16.92;;
22289;SDS011;11313;50.116;8.424;2023-04-15T14:11:21;3.78;;;3.47;;
22289;SDS011;11313;50.116;8.424;2023-04-15T14:13:47;10.45;;;7.22;;
22289;SDS011;11313;50.116;8.424;2023-04-15T14:16:12;11.02;;;10.30;;
22289;SDS011;11313;50.116;8.424;2023-04-15T14:18:38;8.25;;;7.70;;
22289;SDS011;11313;50.116;8.424;2023-04-15T14:21:04;12.13;;;11.23;;
22289;SDS011;11313;50.116;8.424;2023-04-15T14:23:31;11.05;;;10.30;;
22289;SDS011;11313;50.116;8.424;2023-04-15T14:25:56;3.65;;;3.05;;
22289;SDS011;11313;50.116;8.424;2023-04-15T14:28:22;9.30;;;8.60;;
22289;SDS011;11313;50.116;8.424;2023-04-15T14:30:48;7.78;;;4.18;;
22289;SDS011;11313;50.116;8.424;2023-04-15T14:33:13;6.72;;;5.28;;
22289;SDS011;11313;50.116;8.424;2023-04-15T14:35:39;5.72;;;4.72;;
22289;SDS011;11313;50.116;8.424;2023-04-15T14:38:04;11.15;;;10.27;;
22289;SDS011;11313;50.116;8.424;2023-04-15T14:40:34;19.13;;;17.67;;
22289;SDS011;11313;50.116;8.424;2023-04-15T14:42:59;13.13;;;12.27;;
22289;SDS011;11313;50.116;8.424;2023-04-15T14:45:25;8.93;;;8.15;;
22289;SDS011;11313;50.116;8.424;2023-04-15T14:47:51;15.73;;;14.73;;
22289;SDS011;11313;50.116;8.424;2023-04-15T14:50:17;11.18;;;10.38;;
22289;SDS011;11313;50.116;8.424;2023-04-15T14:52:42;6.97;;;6.38;;
22289;SDS011;11313;50.116;8.424;2023-04-15T14:55:08;17.20;;;15.98;;
22289;SDS011;11313;50.116;8.424;2023-04-15T14:57:37;5.25;;;4.95;;
22289;SDS011;11313;50.116;8.424;2023-04-15T15:00:04;8.95;;;8.23;;
22289;SDS011;11313;50.116;8.424;2023-04-15T15:02:31;10.00;;;9.40;;
22289;SDS011;11313;50.116;8.424;2023-04-15T15:04:57;9.18;;;7.30;;
22289;SDS011;11313;50.116;8.424;2023-04-15T15:07:23;6.65;;;6.25;;
22289;SDS011;11313;50.116;8.424;2023-04-15T15:09:48;6.50;;;5.95;;
22289;SDS011;11313;50.116;8.424;2023-04-15T15:12:14;4.80;;;3.40;;
22289;SDS011;11313;50.116;8.424;2023-04-15T15:14:40;8.05;;;7.55;;
22289;SDS011;11313;50.116;8.424;2023-04-15T15:17:05;5.35;;;4.50;;
22289;SDS011;11313;50.116;8.424;2023-04-15T15:19:31;8.93;;;8.02;;
22289;SDS011;11313;50.116;8.424;2023-04-15T15:21:56;11.13;;;10.32;;
22289;SDS011;11313;50.116;8.424;2023-04-15T15:24:23;4.20;;;3.90;;
22289;SDS011;11313;50.116;8.424;2023-04-15T15:26:48;7.30;;;6.63;;
22289;SDS011;11313;50.116;8.424;2023-04-15T15:29:14;11.15;;;10.27;;
22289;SDS011;11313;50.116;8.424;2023-04-15T15:31:39;7.38;;;6.60;;
22289;SDS011;11313;50.116;8.424;2023-04-15T15:34:05;7.50;;;3.97;;
22289;SDS011;11313;50.116;8.424;2023-04-15T15:36:30;5.05;;;4.70;;
22289;SDS011;11313;50.116;8.424;2023-04-15T15:38:56;6.45;;;4.88;;
22289;SDS011;11313;50.116;8.424;2023-04-15T15:41:22;55.30;;;52.20;;
22289;SDS011;11313;50.116;8.424;2023-04-15T15:43:48;13.57;;;12.60;;
22289;SDS011;11313;50.116;8.424;2023-04-15T15:46:13;3.63;;;3.35;;
22289;SDS011;11313;50.116;8.424;2023-04-15T15:48:39;5.07;;;2.75;;
22289;SDS011;11313;50.116;8.424;2023-04-15T15:51:04;3.70;;;3.40;;
22289;SDS011;11313;50.116;8.424;2023-04-15T15:53:30;8.60;;;8.00;;
22289;SDS011;11313;50.116;8.424;2023-04-15T15:55:55;8.60;;;7.90;;
22289;SDS011;11313;50.116;8.424;2023-04-15T15:58:21;2.83;;;1.70;;
22289;SDS011;11313;50.116;8.424;2023-04-15T16:00:46;7.57;;;6.88;;
22289;SDS011;11313;50.116;8.424;2023-04-15T16:03:12;3.65;;;3.10;;
22289;SDS011;11313;50.116;8.424;2023-04-15T16:05:37;3.85;;;3.22;;
22289;SDS011;11313;50.116;8.424;2023-04-15T16:08:03;4.63;;;3.35;;
22289;SDS011;11313;50.116;8.424;2023-04-15T16:10:29;6.68;;;3.25;;
22289;SDS011;11313;50.116;8.424;2023-04-15T16:12:54;5.90;;;3.20;;
22289;SDS011;11313;50.116;8.424;2023-04-15T16:15:21;7.03;;;5.63;;
22289;SDS011;11313;50.116;8.424;2023-04-15T16:17:49;14.23;;;13.35;;
22289;SDS011;11313;50.116;8.424;2023-04-15T16:20:15;9.85;;;9.05;;
22289;SDS011;11313;50.116;8.424;2023-04-15T16:22:40;5.28;;;4.88;;
22289;SDS011;11313;50.116;8.424;2023-04-15T16:25:06;12.77;;;11.82;;
22289;SDS011;11313;50.116;8.424;2023-04-15T16:27:32;7.07;;;6.47;;
22289;SDS011;11313;50.116;8.424;2023-04-15T16:29:57;8.43;;;5.70;;
22289;SDS011;11313;50.116;8.424;2023-04-15T16:32:23;3.28;;;2.55;;
22289;SDS011;11313;50.116;8.424;2023-04-15T16:34:48;11.25;;;10.45;;
22289;SDS011;11313;50.116;8.424;2023-04-15T16:37:14;11.93;;;10.82;;
22289;SDS011;11313;50.116;8.424;2023-04-15T16:39:39;11.38;;;10.48;;
22289;SDS011;11313;50.116;8.424;2023-04-15T16:42:05;7.15;;;6.47;;
22289;SDS011;11313;50.116;8.424;2023-04-15T16:44:31;4.70;;;4.28;;